sensor_id;sensor_type;location;lat;lon;timestamp;temperature;humidity
21481;DHT22;10902;48.158;8.634;2023-12-04T00:00:34;-8.60;99.90
21481;DHT22;10902;48.158;8.634;2023-12-04T00:03:20;-8.70;99.90
21481;DHT22;10902;48.158;8.634;2023-12-04T00:06:06;-8.70;99.90
21481;DHT22;10902;48.158;8.634;2023-12-04T00:08:51;-8.70;99.90
21481;DHT22;10902;48.158;8.634;2023-12-04T00:11:37;-8.80;99.90
21481;DHT22;10902;48.158;8.634;2023-12-04T00:14:22;-8.70;99.90
21481;DHT22;10902;48.158;8.634;2023-12-04T00:17:08;-8.30;99.90
21481;DHT22;10902;48.158;8.634;2023-12-04T00:19:53;-8.20;99.90
21481;DHT22;10902;48.158;8.634;2023-12-04T00:22:39;-8.20;99.90
21481;DHT22;10902;48.158;8.634;2023-12-04T00:25:25;-8.30;99.90
21481;DHT22;10902;48.158;8.634;2023-12-04T00:28:14;-8.40;99.90
21481;DHT22;10902;48.158;8.634;2023-12-04T00:31:00;-8.60;99.90
21481;DHT22;10902;48.158;8.634;2023-12-04T00:33:45;-8.80;99.90
21481;DHT22;10902;48.158;8.634;2023-12-04T00:36:31;-8.70;99.90
21481;DHT22;10902;48.158;8.634;2023-12-04T00:39:17;-8.60;99.90
21481;DHT22;10902;48.158;8.634;2023-12-04T00:42:02;-8.50;99.90
21481;DHT22;10902;48.158;8.634;2023-12-04T00:44:48;-8.40;99.90
21481;DHT22;10902;48.158;8.634;2023-12-04T00:47:34;-8.30;99.90
21481;DHT22;10902;48.158;8.634;2023-12-04T00:50:19;-8.20;99.90
21481;DHT22;10902;48.158;8.634;2023-12-04T00:53:06;-8.00;99.90
21481;DHT22;10902;48.158;8.634;2023-12-04T00:55:51;-7.90;99.90
21481;DHT22;10902;48.158;8.634;2023-12-04T00:58:37;-7.80;99.90
21481;DHT22;10902;48.158;8.634;2023-12-04T01:01:22;-7.80;99.90
21481;DHT22;10902;48.158;8.634;2023-12-04T01:04:08;-7.80;99.90
21481;DHT22;10902;48.158;8.634;2023-12-04T01:06:53;-7.80;99.90
21481;DHT22;10902;48.158;8.634;2023-12-04T01:09:39;-7.80;99.90
21481;DHT22;10902;48.158;8.634;2023-12-04T01:12:25;-7.70;99.90
21481;DHT22;10902;48.158;8.634;2023-12-04T01:15:10;-7.70;99.90
21481;DHT22;10902;48.158;8.634;2023-12-04T01:17:56;-7.70;99.90
21481;DHT22;10902;48.158;8.634;2023-12-04T01:20:41;-7.80;99.90
21481;DHT22;10902;48.158;8.634;2023-12-04T01:23:27;-7.80;99.90
21481;DHT22;10902;48.158;8.634;2023-12-04T01:26:12;-7.90;99.90
21481;DHT22;10902;48.158;8.634;2023-12-04T01:28:58;-8.10;99.90
21481;DHT22;10902;48.158;8.634;2023-12-04T01:31:44;-8.20;99.90
21481;DHT22;10902;48.158;8.634;2023-12-04T01:34:30;-8.20;99.90
21481;DHT22;10902;48.158;8.634;2023-12-04T01:37:15;-8.30;99.90
21481;DHT22;10902;48.158;8.634;2023-12-04T01:40:01;-8.30;99.90
21481;DHT22;10902;48.158;8.634;2023-12-04T01:42:47;-8.40;99.90
21481;DHT22;10902;48.158;8.634;2023-12-04T01:45:32;-8.60;99.90
21481;DHT22;10902;48.158;8.634;2023-12-04T01:48:18;-8.40;99.90
21481;DHT22;10902;48.158;8.634;2023-12-04T01:51:07;-8.30;99.90
21481;DHT22;10902;48.158;8.634;2023-12-04T01:53:57;-8.30;99.90
21481;DHT22;10902;48.158;8.634;2023-12-04T01:56:44;-8.20;99.90
21481;DHT22;10902;48.158;8.634;2023-12-04T01:59:31;-8.00;99.90
21481;DHT22;10902;48.158;8.634;2023-12-04T02:02:17;-7.90;99.90
21481;DHT22;10902;48.158;8.634;2023-12-04T02:05:03;-7.70;99.90
21481;DHT22;10902;48.158;8.634;2023-12-04T02:07:50;-7.70;99.90
21481;DHT22;10902;48.158;8.634;2023-12-04T02:10:36;-7.60;99.90
21481;DHT22;10902;48.158;8.634;2023-12-04T02:13:21;-7.60;99.90
21481;DHT22;10902;48.158;8.634;2023-12-04T02:16:10;-7.50;99.90
21481;DHT22;10902;48.158;8.634;2023-12-04T02:18:56;-7.60;99.90
21481;DHT22;10902;48.158;8.634;2023-12-04T02:21:41;-7.80;99.90
21481;DHT22;10902;48.158;8.634;2023-12-04T02:24:27;-8.00;99.90
21481;DHT22;10902;48.158;8.634;2023-12-04T02:27:22;-8.00;99.90
21481;DHT22;10902;48.158;8.634;2023-12-04T02:30:11;-8.10;99.90
21481;DHT22;10902;48.158;8.634;2023-12-04T02:32:59;-8.20;99.90
21481;DHT22;10902;48.158;8.634;2023-12-04T02:35:47;-8.40;99.90
21481;DHT22;10902;48.158;8.634;2023-12-04T02:38:32;-8.50;99.90
21481;DHT22;10902;48.158;8.634;2023-12-04T02:41:19;-8.50;99.90
21481;DHT22;10902;48.158;8.634;2023-12-04T02:44:04;-8.50;99.90
21481;DHT22;10902;48.158;8.634;2023-12-04T02:46:50;-8.40;99.90
21481;DHT22;10902;48.158;8.634;2023-12-04T02:49:36;-8.40;99.90
21481;DHT22;10902;48.158;8.634;2023-12-04T02:52:22;-8.20;99.90
21481;DHT22;10902;48.158;8.634;2023-12-04T02:55:07;-8.30;99.90
21481;DHT22;10902;48.158;8.634;2023-12-04T02:57:53;-8.20;99.90
21481;DHT22;10902;48.158;8.634;2023-12-04T03:00:39;-8.50;99.90
21481;DHT22;10902;48.158;8.634;2023-12-04T03:03:24;-8.20;99.90
21481;DHT22;10902;48.158;8.634;2023-12-04T03:06:10;-8.20;99.90
21481;DHT22;10902;48.158;8.634;2023-12-04T03:08:55;-7.80;99.90
21481;DHT22;10902;48.158;8.634;2023-12-04T03:11:41;-7.60;99.90
21481;DHT22;10902;48.158;8.634;2023-12-04T03:14:27;-7.50;99.90
21481;DHT22;10902;48.158;8.634;2023-12-04T03:17:12;-7.40;99.90
21481;DHT22;10902;48.158;8.634;2023-12-04T03:19:58;-7.30;99.90
21481;DHT22;10902;48.158;8.634;2023-12-04T03:22:44;-7.20;99.90
21481;DHT22;10902;48.158;8.634;2023-12-04T03:25:29;-7.10;99.90
21481;DHT22;10902;48.158;8.634;2023-12-04T03:28:15;-7.30;99.90
21481;DHT22;10902;48.158;8.634;2023-12-04T03:31:01;-7.60;99.90
21481;DHT22;10902;48.158;8.634;2023-12-04T03:33:47;-7.70;99.90
21481;DHT22;10902;48.158;8.634;2023-12-04T03:36:32;-7.50;99.90
21481;DHT22;10902;48.158;8.634;2023-12-04T03:39:18;-7.60;99.90
21481;DHT22;10902;48.158;8.634;2023-12-04T03:42:04;-7.50;99.90
21481;DHT22;10902;48.158;8.634;2023-12-04T03:44:49;-7.50;99.90
21481;DHT22;10902;48.158;8.634;2023-12-04T03:47:36;-7.40;99.90
21481;DHT22;10902;48.158;8.634;2023-12-04T03:50:21;-7.40;99.90
21481;DHT22;10902;48.158;8.634;2023-12-04T03:53:07;-7.50;99.90
21481;DHT22;10902;48.158;8.634;2023-12-04T03:55:53;-7.50;99.90
21481;DHT22;10902;48.158;8.634;2023-12-04T03:58:38;-7.50;99.90
21481;DHT22;10902;48.158;8.634;2023-12-04T04:01:24;-7.30;99.90
21481;DHT22;10902;48.158;8.634;2023-12-04T04:04:10;-7.20;99.90
21481;DHT22;10902;48.158;8.634;2023-12-04T04:06:55;-7.10;99.90
21481;DHT22;10902;48.158;8.634;2023-12-04T04:09:41;-7.00;99.90
21481;DHT22;10902;48.158;8.634;2023-12-04T04:12:27;-7.00;99.90
21481;DHT22;10902;48.158;8.634;2023-12-04T04:15:13;-7.00;99.90
21481;DHT22;10902;48.158;8.634;2023-12-04T04:17:58;-6.90;99.90
21481;DHT22;10902;48.158;8.634;2023-12-04T04:20:44;-6.70;99.90
21481;DHT22;10902;48.158;8.634;2023-12-04T04:23:29;-6.60;99.90
21481;DHT22;10902;48.158;8.634;2023-12-04T04:26:15;-6.50;99.90
21481;DHT22;10902;48.158;8.634;2023-12-04T04:29:01;-6.50;99.90
21481;DHT22;10902;48.158;8.634;2023-12-04T04:31:46;-6.50;99.90
21481;DHT22;10902;48.158;8.634;2023-12-04T04:34:32;-6.40;99.90
21481;DHT22;10902;48.158;8.634;2023-12-04T04:37:19;-6.40;99.90
21481;DHT22;10902;48.158;8.634;2023-12-04T04:40:05;-6.40;99.90
21481;DHT22;10902;48.158;8.634;2023-12-04T04:42:50;-6.30;99.90
21481;DHT22;10902;48.158;8.634;2023-12-04T04:45:36;-6.20;99.90
21481;DHT22;10902;48.158;8.634;2023-12-04T04:48:22;-6.20;99.90
21481;DHT22;10902;48.158;8.634;2023-12-04T04:51:07;-6.20;99.90
21481;DHT22;10902;48.158;8.634;2023-12-04T04:53:53;-6.20;99.90
21481;DHT22;10902;48.158;8.634;2023-12-04T04:56:38;-6.10;99.90
21481;DHT22;10902;48.158;8.634;2023-12-04T04:59:24;-6.10;99.90
21481;DHT22;10902;48.158;8.634;2023-12-04T05:02:10;-6.00;99.90
21481;DHT22;10902;48.158;8.634;2023-12-04T05:04:55;-5.90;99.90
21481;DHT22;10902;48.158;8.634;2023-12-04T05:07:41;-5.90;99.90
21481;DHT22;10902;48.158;8.634;2023-12-04T05:10:26;-5.90;99.90
21481;DHT22;10902;48.158;8.634;2023-12-04T05:13:12;-6.00;99.90
21481;DHT22;10902;48.158;8.634;2023-12-04T05:15:57;-6.00;99.90
21481;DHT22;10902;48.158;8.634;2023-12-04T05:18:43;-6.10;99.90
21481;DHT22;10902;48.158;8.634;2023-12-04T05:21:29;-6.10;99.90
21481;DHT22;10902;48.158;8.634;2023-12-04T05:24:14;-6.20;99.90
21481;DHT22;10902;48.158;8.634;2023-12-04T05:27:00;-6.30;99.90
21481;DHT22;10902;48.158;8.634;2023-12-04T05:29:46;-6.40;99.90
21481;DHT22;10902;48.158;8.634;2023-12-04T05:32:32;-6.50;99.90
21481;DHT22;10902;48.158;8.634;2023-12-04T05:35:17;-6.50;99.90
21481;DHT22;10902;48.158;8.634;2023-12-04T05:38:03;-6.50;99.90
21481;DHT22;10902;48.158;8.634;2023-12-04T05:40:49;-6.50;99.90
21481;DHT22;10902;48.158;8.634;2023-12-04T05:43:35;-6.50;99.90
21481;DHT22;10902;48.158;8.634;2023-12-04T05:46:20;-6.60;99.90
21481;DHT22;10902;48.158;8.634;2023-12-04T05:49:06;-6.60;99.90
21481;DHT22;10902;48.158;8.634;2023-12-04T05:51:51;-6.60;99.90
21481;DHT22;10902;48.158;8.634;2023-12-04T05:54:37;-6.50;99.90
21481;DHT22;10902;48.158;8.634;2023-12-04T05:57:23;-6.60;99.90
21481;DHT22;10902;48.158;8.634;2023-12-04T06:00:09;-6.60;99.90
21481;DHT22;10902;48.158;8.634;2023-12-04T06:02:58;-6.60;99.90
21481;DHT22;10902;48.158;8.634;2023-12-04T06:05:43;-6.60;99.90
21481;DHT22;10902;48.158;8.634;2023-12-04T06:08:29;-6.60;99.90
21481;DHT22;10902;48.158;8.634;2023-12-04T06:11:15;-6.60;99.90
21481;DHT22;10902;48.158;8.634;2023-12-04T06:14:00;-6.60;99.90
21481;DHT22;10902;48.158;8.634;2023-12-04T06:16:46;-6.60;99.90
21481;DHT22;10902;48.158;8.634;2023-12-04T06:19:31;-6.50;99.90
21481;DHT22;10902;48.158;8.634;2023-12-04T06:22:17;-6.50;99.90
21481;DHT22;10902;48.158;8.634;2023-12-04T06:25:05;-6.50;99.90
21481;DHT22;10902;48.158;8.634;2023-12-04T06:27:51;-6.40;99.90
21481;DHT22;10902;48.158;8.634;2023-12-04T06:30:37;-6.40;99.90
21481;DHT22;10902;48.158;8.634;2023-12-04T06:33:23;-6.50;99.90
21481;DHT22;10902;48.158;8.634;2023-12-04T06:36:10;-6.40;99.90
21481;DHT22;10902;48.158;8.634;2023-12-04T06:38:58;-6.50;99.90
21481;DHT22;10902;48.158;8.634;2023-12-04T06:41:45;-6.40;99.90
21481;DHT22;10902;48.158;8.634;2023-12-04T06:44:32;-6.40;99.90
21481;DHT22;10902;48.158;8.634;2023-12-04T06:47:22;-6.50;99.90
21481;DHT22;10902;48.158;8.634;2023-12-04T06:50:08;-6.50;99.90
21481;DHT22;10902;48.158;8.634;2023-12-04T06:52:54;-6.50;99.90
21481;DHT22;10902;48.158;8.634;2023-12-04T06:55:39;-6.50;99.90
21481;DHT22;10902;48.158;8.634;2023-12-04T06:58:25;-6.50;99.90
21481;DHT22;10902;48.158;8.634;2023-12-04T07:01:10;-6.50;99.90
21481;DHT22;10902;48.158;8.634;2023-12-04T07:03:56;-6.50;99.90
21481;DHT22;10902;48.158;8.634;2023-12-04T07:06:42;-6.40;99.90
21481;DHT22;10902;48.158;8.634;2023-12-04T07:09:28;-6.50;99.90
21481;DHT22;10902;48.158;8.634;2023-12-04T07:12:13;-6.50;99.90
21481;DHT22;10902;48.158;8.634;2023-12-04T07:14:59;-6.40;99.90
21481;DHT22;10902;48.158;8.634;2023-12-04T07:17:45;-6.30;99.90
21481;DHT22;10902;48.158;8.634;2023-12-04T07:20:31;-6.30;99.90
21481;DHT22;10902;48.158;8.634;2023-12-04T07:23:16;-6.30;99.90
21481;DHT22;10902;48.158;8.634;2023-12-04T07:26:02;-6.30;99.90
21481;DHT22;10902;48.158;8.634;2023-12-04T07:28:49;-6.20;99.90
21481;DHT22;10902;48.158;8.634;2023-12-04T07:31:34;-6.10;99.90
21481;DHT22;10902;48.158;8.634;2023-12-04T07:34:20;-6.10;99.90
21481;DHT22;10902;48.158;8.634;2023-12-04T07:37:05;-5.90;99.90
21481;DHT22;10902;48.158;8.634;2023-12-04T07:39:51;-6.00;99.90
21481;DHT22;10902;48.158;8.634;2023-12-04T07:42:37;-5.90;99.90
21481;DHT22;10902;48.158;8.634;2023-12-04T07:45:24;-5.90;99.90
21481;DHT22;10902;48.158;8.634;2023-12-04T07:48:09;-5.90;99.90
21481;DHT22;10902;48.158;8.634;2023-12-04T07:50:55;-5.90;99.90
21481;DHT22;10902;48.158;8.634;2023-12-04T07:53:40;-5.80;99.90
21481;DHT22;10902;48.158;8.634;2023-12-04T07:56:26;-5.70;99.90
21481;DHT22;10902;48.158;8.634;2023-12-04T07:59:12;-5.60;99.90
21481;DHT22;10902;48.158;8.634;2023-12-04T08:01:57;-5.60;99.90
21481;DHT22;10902;48.158;8.634;2023-12-04T08:04:43;-5.70;99.90
21481;DHT22;10902;48.158;8.634;2023-12-04T08:07:28;-5.60;99.90
21481;DHT22;10902;48.158;8.634;2023-12-04T08:10:14;-5.50;99.90
21481;DHT22;10902;48.158;8.634;2023-12-04T08:13:00;-5.50;99.90
21481;DHT22;10902;48.158;8.634;2023-12-04T08:15:45;-5.50;99.90
21481;DHT22;10902;48.158;8.634;2023-12-04T08:18:31;-5.50;99.90
21481;DHT22;10902;48.158;8.634;2023-12-04T08:21:16;-5.40;99.90
21481;DHT22;10902;48.158;8.634;2023-12-04T08:24:02;-5.30;99.90
21481;DHT22;10902;48.158;8.634;2023-12-04T08:26:48;-5.10;99.90
21481;DHT22;10902;48.158;8.634;2023-12-04T08:29:34;-5.10;99.90
21481;DHT22;10902;48.158;8.634;2023-12-04T08:32:20;-5.20;99.90
21481;DHT22;10902;48.158;8.634;2023-12-04T08:35:07;-5.10;99.90
21481;DHT22;10902;48.158;8.634;2023-12-04T08:37:52;-4.90;99.90
21481;DHT22;10902;48.158;8.634;2023-12-04T08:40:38;-4.80;99.90
21481;DHT22;10902;48.158;8.634;2023-12-04T08:43:23;-4.80;99.90
21481;DHT22;10902;48.158;8.634;2023-12-04T08:46:13;-4.80;99.90
21481;DHT22;10902;48.158;8.634;2023-12-04T08:48:59;-4.80;99.90
21481;DHT22;10902;48.158;8.634;2023-12-04T08:51:44;-4.70;99.90
21481;DHT22;10902;48.158;8.634;2023-12-04T08:54:30;-4.60;99.90
21481;DHT22;10902;48.158;8.634;2023-12-04T08:57:16;-4.60;99.90
21481;DHT22;10902;48.158;8.634;2023-12-04T09:00:02;-4.50;99.90
21481;DHT22;10902;48.158;8.634;2023-12-04T09:02:49;-4.40;99.90
21481;DHT22;10902;48.158;8.634;2023-12-04T09:05:34;-4.50;99.90
21481;DHT22;10902;48.158;8.634;2023-12-04T09:08:20;-4.60;99.90
21481;DHT22;10902;48.158;8.634;2023-12-04T09:11:06;-4.50;99.90
21481;DHT22;10902;48.158;8.634;2023-12-04T09:13:51;-4.40;99.90
21481;DHT22;10902;48.158;8.634;2023-12-04T09:16:37;-4.40;99.90
21481;DHT22;10902;48.158;8.634;2023-12-04T09:19:22;-4.20;99.90
21481;DHT22;10902;48.158;8.634;2023-12-04T09:22:08;-4.20;99.90
21481;DHT22;10902;48.158;8.634;2023-12-04T09:24:53;-4.10;99.90
21481;DHT22;10902;48.158;8.634;2023-12-04T09:27:39;-4.00;99.90
21481;DHT22;10902;48.158;8.634;2023-12-04T09:30:26;-4.00;99.90
21481;DHT22;10902;48.158;8.634;2023-12-04T09:33:11;-4.20;99.90
21481;DHT22;10902;48.158;8.634;2023-12-04T09:35:57;-4.20;99.90
21481;DHT22;10902;48.158;8.634;2023-12-04T09:38:43;-4.10;99.90
21481;DHT22;10902;48.158;8.634;2023-12-04T09:41:29;-4.00;99.90
21481;DHT22;10902;48.158;8.634;2023-12-04T09:44:16;-3.80;99.90
21481;DHT22;10902;48.158;8.634;2023-12-04T09:47:02;-3.70;99.90
21481;DHT22;10902;48.158;8.634;2023-12-04T09:49:51;-3.80;99.90
21481;DHT22;10902;48.158;8.634;2023-12-04T09:52:37;-3.70;99.90
21481;DHT22;10902;48.158;8.634;2023-12-04T09:55:23;-3.80;99.90
21481;DHT22;10902;48.158;8.634;2023-12-04T09:58:10;-3.80;99.90
21481;DHT22;10902;48.158;8.634;2023-12-04T10:01:02;-3.70;99.90
21481;DHT22;10902;48.158;8.634;2023-12-04T10:03:48;-3.70;99.90
21481;DHT22;10902;48.158;8.634;2023-12-04T10:06:34;-3.70;99.90
21481;DHT22;10902;48.158;8.634;2023-12-04T10:09:21;-3.70;99.90
21481;DHT22;10902;48.158;8.634;2023-12-04T10:12:08;-3.60;99.90
21481;DHT22;10902;48.158;8.634;2023-12-04T10:17:50;-3.60;99.90
21481;DHT22;10902;48.158;8.634;2023-12-04T10:20:51;-3.50;99.90
21481;DHT22;10902;48.158;8.634;2023-12-04T10:23:42;-3.50;99.90
21481;DHT22;10902;48.158;8.634;2023-12-04T10:26:27;-3.30;99.90
21481;DHT22;10902;48.158;8.634;2023-12-04T10:29:13;-3.30;99.90
21481;DHT22;10902;48.158;8.634;2023-12-04T10:31:59;-3.20;99.90
21481;DHT22;10902;48.158;8.634;2023-12-04T10:34:45;-3.30;99.90
21481;DHT22;10902;48.158;8.634;2023-12-04T10:37:30;-3.20;99.90
21481;DHT22;10902;48.158;8.634;2023-12-04T10:40:23;-3.20;99.90
21481;DHT22;10902;48.158;8.634;2023-12-04T10:45:54;-3.10;99.90
21481;DHT22;10902;48.158;8.634;2023-12-04T10:48:40;-2.90;99.90
21481;DHT22;10902;48.158;8.634;2023-12-04T10:51:26;-2.70;99.90
21481;DHT22;10902;48.158;8.634;2023-12-04T10:54:13;-2.20;99.90
21481;DHT22;10902;48.158;8.634;2023-12-04T10:57:01;-1.30;99.90
21481;DHT22;10902;48.158;8.634;2023-12-04T10:59:52;-0.70;99.90
21481;DHT22;10902;48.158;8.634;2023-12-04T11:02:43;-0.30;99.90
21481;DHT22;10902;48.158;8.634;2023-12-04T11:05:37;-0.20;99.90
21481;DHT22;10902;48.158;8.634;2023-12-04T11:08:23;-0.70;99.90
21481;DHT22;10902;48.158;8.634;2023-12-04T11:11:14;-1.10;99.90
21481;DHT22;10902;48.158;8.634;2023-12-04T11:14:04;-1.20;99.90
21481;DHT22;10902;48.158;8.634;2023-12-04T11:17:00;-1.30;99.90
21481;DHT22;10902;48.158;8.634;2023-12-04T11:19:55;-1.20;99.90
21481;DHT22;10902;48.158;8.634;2023-12-04T11:22:41;-1.20;99.90
21481;DHT22;10902;48.158;8.634;2023-12-04T11:25:28;-1.20;99.90
21481;DHT22;10902;48.158;8.634;2023-12-04T11:28:15;-1.40;99.90
21481;DHT22;10902;48.158;8.634;2023-12-04T11:31:02;-1.10;99.90
21481;DHT22;10902;48.158;8.634;2023-12-04T11:33:47;-1.00;99.90
21481;DHT22;10902;48.158;8.634;2023-12-04T11:36:34;-1.20;99.90
21481;DHT22;10902;48.158;8.634;2023-12-04T11:39:19;-1.40;99.90
21481;DHT22;10902;48.158;8.634;2023-12-04T11:42:09;-1.60;99.90
21481;DHT22;10902;48.158;8.634;2023-12-04T11:44:58;-1.60;99.90
21481;DHT22;10902;48.158;8.634;2023-12-04T11:47:57;-1.40;99.90
21481;DHT22;10902;48.158;8.634;2023-12-04T11:50:43;-1.30;99.90
21481;DHT22;10902;48.158;8.634;2023-12-04T11:53:30;-1.40;99.90
21481;DHT22;10902;48.158;8.634;2023-12-04T11:56:16;-1.30;99.90
21481;DHT22;10902;48.158;8.634;2023-12-04T11:59:06;-1.10;99.90
21481;DHT22;10902;48.158;8.634;2023-12-04T12:01:54;-0.70;99.90
21481;DHT22;10902;48.158;8.634;2023-12-04T12:04:41;-0.90;99.90
21481;DHT22;10902;48.158;8.634;2023-12-04T12:07:27;-1.10;99.90
21481;DHT22;10902;48.158;8.634;2023-12-04T12:10:13;-1.40;99.90
21481;DHT22;10902;48.158;8.634;2023-12-04T12:12:59;-1.50;99.90
21481;DHT22;10902;48.158;8.634;2023-12-04T12:15:51;-1.50;99.90
21481;DHT22;10902;48.158;8.634;2023-12-04T12:18:36;-1.50;99.90
21481;DHT22;10902;48.158;8.634;2023-12-04T12:21:22;-1.40;99.90
21481;DHT22;10902;48.158;8.634;2023-12-04T12:24:11;-1.30;99.90
21481;DHT22;10902;48.158;8.634;2023-12-04T12:26:57;-1.10;99.90
21481;DHT22;10902;48.158;8.634;2023-12-04T12:29:43;-1.00;99.90
21481;DHT22;10902;48.158;8.634;2023-12-04T12:32:28;-1.00;99.90
21481;DHT22;10902;48.158;8.634;2023-12-04T12:35:14;-1.00;99.90
21481;DHT22;10902;48.158;8.634;2023-12-04T12:37:59;-1.10;99.90
21481;DHT22;10902;48.158;8.634;2023-12-04T12:40:45;-1.10;99.90
21481;DHT22;10902;48.158;8.634;2023-12-04T12:43:31;-1.00;99.90
21481;DHT22;10902;48.158;8.634;2023-12-04T12:46:17;-1.10;99.90
21481;DHT22;10902;48.158;8.634;2023-12-04T12:49:03;-1.10;99.90
21481;DHT22;10902;48.158;8.634;2023-12-04T12:51:50;-1.10;99.90
21481;DHT22;10902;48.158;8.634;2023-12-04T12:54:40;-1.00;99.90
21481;DHT22;10902;48.158;8.634;2023-12-04T12:57:26;-1.00;99.90
21481;DHT22;10902;48.158;8.634;2023-12-04T13:00:13;-1.00;99.90
21481;DHT22;10902;48.158;8.634;2023-12-04T13:02:58;-1.00;99.90
21481;DHT22;10902;48.158;8.634;2023-12-04T13:05:44;-1.00;99.90
21481;DHT22;10902;48.158;8.634;2023-12-04T13:08:30;-1.00;99.90
21481;DHT22;10902;48.158;8.634;2023-12-04T13:11:15;-0.90;99.90
21481;DHT22;10902;48.158;8.634;2023-12-04T13:14:01;-0.80;99.90
21481;DHT22;10902;48.158;8.634;2023-12-04T13:16:47;-0.80;99.90
21481;DHT22;10902;48.158;8.634;2023-12-04T13:19:32;-0.80;99.90
21481;DHT22;10902;48.158;8.634;2023-12-04T13:22:19;-0.80;99.90
21481;DHT22;10902;48.158;8.634;2023-12-04T13:25:06;-0.70;99.90
21481;DHT22;10902;48.158;8.634;2023-12-04T13:27:55;-0.60;99.90
21481;DHT22;10902;48.158;8.634;2023-12-04T13:30:40;-0.60;99.90
21481;DHT22;10902;48.158;8.634;2023-12-04T13:33:26;-0.60;99.90
21481;DHT22;10902;48.158;8.634;2023-12-04T13:36:12;-0.70;99.90
21481;DHT22;10902;48.158;8.634;2023-12-04T13:38:58;-0.70;99.90
21481;DHT22;10902;48.158;8.634;2023-12-04T13:41:47;-0.60;99.90
21481;DHT22;10902;48.158;8.634;2023-12-04T13:44:51;-0.70;99.90
21481;DHT22;10902;48.158;8.634;2023-12-04T13:47:37;-0.70;99.90
21481;DHT22;10902;48.158;8.634;2023-12-04T13:50:23;-0.70;99.90
21481;DHT22;10902;48.158;8.634;2023-12-04T13:53:08;-0.80;99.90
21481;DHT22;10902;48.158;8.634;2023-12-04T13:55:54;-0.90;99.90
21481;DHT22;10902;48.158;8.634;2023-12-04T13:58:40;-1.00;99.90
21481;DHT22;10902;48.158;8.634;2023-12-04T14:01:29;-1.00;99.90
21481;DHT22;10902;48.158;8.634;2023-12-04T14:04:15;-1.00;99.90
21481;DHT22;10902;48.158;8.634;2023-12-04T14:07:01;-1.10;99.90
21481;DHT22;10902;48.158;8.634;2023-12-04T14:09:47;-1.20;99.90
21481;DHT22;10902;48.158;8.634;2023-12-04T14:12:32;-1.20;99.90
21481;DHT22;10902;48.158;8.634;2023-12-04T14:15:18;-1.20;99.90
21481;DHT22;10902;48.158;8.634;2023-12-04T14:18:04;-1.20;99.90
21481;DHT22;10902;48.158;8.634;2023-12-04T14:20:49;-1.10;99.90
21481;DHT22;10902;48.158;8.634;2023-12-04T14:23:36;-1.10;99.90
21481;DHT22;10902;48.158;8.634;2023-12-04T14:26:22;-1.00;99.90
21481;DHT22;10902;48.158;8.634;2023-12-04T14:29:07;-1.00;99.90
21481;DHT22;10902;48.158;8.634;2023-12-04T14:31:53;-1.00;99.90
21481;DHT22;10902;48.158;8.634;2023-12-04T14:34:39;-0.90;99.90
21481;DHT22;10902;48.158;8.634;2023-12-04T14:37:24;-0.90;99.90
21481;DHT22;10902;48.158;8.634;2023-12-04T14:40:12;-0.90;99.90
21481;DHT22;10902;48.158;8.634;2023-12-04T14:42:58;-1.00;99.90
21481;DHT22;10902;48.158;8.634;2023-12-04T14:45:43;-1.00;99.90
21481;DHT22;10902;48.158;8.634;2023-12-04T14:48:30;-1.10;99.90
21481;DHT22;10902;48.158;8.634;2023-12-04T14:51:16;-1.20;99.90
21481;DHT22;10902;48.158;8.634;2023-12-04T14:54:02;-1.20;99.90
21481;DHT22;10902;48.158;8.634;2023-12-04T14:57:06;-1.20;99.90
21481;DHT22;10902;48.158;8.634;2023-12-04T15:00:04;-1.30;99.90
21481;DHT22;10902;48.158;8.634;2023-12-04T15:02:55;-1.40;99.90
21481;DHT22;10902;48.158;8.634;2023-12-04T15:06:01;-1.40;99.90
21481;DHT22;10902;48.158;8.634;2023-12-04T15:08:58;-1.40;99.90
21481;DHT22;10902;48.158;8.634;2023-12-04T15:12:03;-1.40;99.90
21481;DHT22;10902;48.158;8.634;2023-12-04T15:14:51;-1.40;99.90
21481;DHT22;10902;48.158;8.634;2023-12-04T15:17:42;-1.50;99.90
21481;DHT22;10902;48.158;8.634;2023-12-04T15:20:36;-1.50;99.90
21481;DHT22;10902;48.158;8.634;2023-12-04T15:23:23;-1.60;99.90
21481;DHT22;10902;48.158;8.634;2023-12-04T15:26:09;-1.50;99.90
21481;DHT22;10902;48.158;8.634;2023-12-04T15:28:56;-1.60;99.90
21481;DHT22;10902;48.158;8.634;2023-12-04T15:31:41;-1.60;99.90
21481;DHT22;10902;48.158;8.634;2023-12-04T15:34:27;-1.70;99.90
21481;DHT22;10902;48.158;8.634;2023-12-04T15:37:12;-1.70;99.90
21481;DHT22;10902;48.158;8.634;2023-12-04T15:39:58;-1.70;99.90
21481;DHT22;10902;48.158;8.634;2023-12-04T15:42:44;-1.70;99.90
21481;DHT22;10902;48.158;8.634;2023-12-04T15:45:29;-1.80;99.90
21481;DHT22;10902;48.158;8.634;2023-12-04T15:48:15;-1.80;99.90
21481;DHT22;10902;48.158;8.634;2023-12-04T15:51:00;-1.80;99.90
21481;DHT22;10902;48.158;8.634;2023-12-04T15:53:46;-1.80;99.90
21481;DHT22;10902;48.158;8.634;2023-12-04T15:56:32;-1.80;99.90
21481;DHT22;10902;48.158;8.634;2023-12-04T15:59:17;-1.80;99.90
21481;DHT22;10902;48.158;8.634;2023-12-04T16:02:03;-1.80;99.90
21481;DHT22;10902;48.158;8.634;2023-12-04T16:04:49;-1.70;99.90
21481;DHT22;10902;48.158;8.634;2023-12-04T16:07:35;-1.70;99.90
21481;DHT22;10902;48.158;8.634;2023-12-04T16:10:20;-1.70;99.90
21481;DHT22;10902;48.158;8.634;2023-12-04T16:13:06;-1.70;99.90
21481;DHT22;10902;48.158;8.634;2023-12-04T16:15:52;-1.70;99.90
21481;DHT22;10902;48.158;8.634;2023-12-04T16:18:37;-1.80;99.90
21481;DHT22;10902;48.158;8.634;2023-12-04T16:21:24;-1.80;99.90
21481;DHT22;10902;48.158;8.634;2023-12-04T16:24:09;-1.80;99.90
21481;DHT22;10902;48.158;8.634;2023-12-04T16:26:56;-1.80;99.90
21481;DHT22;10902;48.158;8.634;2023-12-04T16:29:42;-1.80;99.90
21481;DHT22;10902;48.158;8.634;2023-12-04T16:32:28;-1.80;99.90
21481;DHT22;10902;48.158;8.634;2023-12-04T16:35:13;-1.80;99.90
21481;DHT22;10902;48.158;8.634;2023-12-04T16:37:59;-1.80;99.90
21481;DHT22;10902;48.158;8.634;2023-12-04T16:40:44;-1.80;99.90
21481;DHT22;10902;48.158;8.634;2023-12-04T16:43:30;-1.70;99.90
21481;DHT22;10902;48.158;8.634;2023-12-04T16:46:16;-1.70;99.90
21481;DHT22;10902;48.158;8.634;2023-12-04T16:49:02;-1.60;99.90
21481;DHT22;10902;48.158;8.634;2023-12-04T16:51:47;-1.60;99.90
21481;DHT22;10902;48.158;8.634;2023-12-04T16:54:34;-1.50;99.90
21481;DHT22;10902;48.158;8.634;2023-12-04T16:57:19;-1.40;99.90
21481;DHT22;10902;48.158;8.634;2023-12-04T17:00:06;-1.30;99.90
21481;DHT22;10902;48.158;8.634;2023-12-04T17:02:54;-1.30;99.90
21481;DHT22;10902;48.158;8.634;2023-12-04T17:05:39;-1.30;99.90
21481;DHT22;10902;48.158;8.634;2023-12-04T17:08:25;-1.30;99.90
21481;DHT22;10902;48.158;8.634;2023-12-04T17:11:11;-1.30;99.90
21481;DHT22;10902;48.158;8.634;2023-12-04T17:13:57;-1.30;99.90
21481;DHT22;10902;48.158;8.634;2023-12-04T17:16:43;-1.30;99.90
21481;DHT22;10902;48.158;8.634;2023-12-04T17:19:28;-1.40;99.90
21481;DHT22;10902;48.158;8.634;2023-12-04T17:22:16;-1.40;99.90
21481;DHT22;10902;48.158;8.634;2023-12-04T17:25:02;-1.40;99.90
21481;DHT22;10902;48.158;8.634;2023-12-04T17:27:49;-1.40;99.90
21481;DHT22;10902;48.158;8.634;2023-12-04T17:30:34;-1.40;99.90
21481;DHT22;10902;48.158;8.634;2023-12-04T17:33:20;-1.50;99.90
21481;DHT22;10902;48.158;8.634;2023-12-04T17:36:06;-1.50;99.90